Time;durP1;ratioP1;P1;durP2;ratioP2;P2;SDS_P1;SDS_P2;PMS_P1;PMS_P2;Temp;Humidity;BMP_temperature;BMP_pressure;BME280_temperature;BME280_humidity;BME280_pressure;Samples;Min_cycle;Max_cycle;Signal;HPM_P1;HPM_P2
2023/01/31 00:01:15;;;;;;;97.50;41.88;;;;;;;;;;6084435;23;20014;-83
2023/01/31 00:04:03;;;;;;;89.25;39.08;;;;;;;;;;6083893;23;20027;-83
2023/01/31 00:06:50;;;;;;;92.60;39.70;;;;;;;;;;6084163;23;20372;-83
2023/01/31 00:09:35;;;;;;;108.75;45.95;;;;;;;;;;6104690;23;20022;-82
2023/01/31 00:12:20;;;;;;;85.47;37.72;;;;;;;;;;6085060;23;20018;-82
2023/01/31 00:15:06;;;;;;;78.90;33.28;;;;;;;;;;6085452;23;20023;-85
2023/01/31 00:17:54;;;;;;;93.65;38.05;;;;;;;;;;6085049;23;20018;-81
2023/01/31 00:20:39;;;;;;;60.30;28.80;;;;;;;;;;6105740;23;20026;-84
2023/01/31 00:23:25;;;;;;;104.55;40.70;;;;;;;;;;6065302;23;20018;-83
2023/01/31 00:26:20;;;;;;;80.72;35.38;;;;;;;;;;6065371;23;20456;-83
2023/01/31 00:29:05;;;;;;;100.07;38.90;;;;;;;;;;6065979;23;20026;-84
2023/01/31 00:31:51;;;;;;;102.63;40.13;;;;;;;;;;6085124;23;20456;-84
2023/01/31 00:34:36;;;;;;;95.15;40.58;;;;;;;;;;6085429;23;20022;-83
2023/01/31 00:37:22;;;;;;;89.18;37.55;;;;;;;;;;6086044;23;20022;-82
2023/01/31 00:40:08;;;;;;;86.15;37.38;;;;;;;;;;6086993;23;20018;-84
2023/01/31 00:42:53;;;;;;;92.97;37.45;;;;;;;;;;6087875;23;20018;-82
2023/01/31 00:45:39;;;;;;;80.25;34.97;;;;;;;;;;6086960;23;20018;-84
2023/01/31 00:48:24;;;;;;;82.68;34.03;;;;;;;;;;6067435;23;20022;-85
2023/01/31 00:51:13;;;;;;;69.40;28.80;;;;;;;;;;6067748;23;20022;-83
2023/01/31 00:54:00;;;;;;;68.10;30.15;;;;;;;;;;6067159;23;20459;-82
2023/01/31 00:56:46;;;;;;;62.67;23.98;;;;;;;;;;6087363;23;20018;-82
2023/01/31 00:59:34;;;;;;;63.42;27.25;;;;;;;;;;6086739;23;20200;-82
2023/01/31 01:02:25;;;;;;;55.15;25.58;;;;;;;;;;6068013;23;20015;-83
2023/01/31 01:05:13;;;;;;;66.22;28.83;;;;;;;;;;6067022;23;20023;-82
2023/01/31 01:07:58;;;;;;;54.88;23.75;;;;;;;;;;6066484;23;20030;-81
2023/01/31 01:10:43;;;;;;;51.67;21.85;;;;;;;;;;6066969;23;20018;-84
2023/01/31 01:13:28;;;;;;;62.42;25.05;;;;;;;;;;6086874;23;20018;-83
2023/01/31 01:16:20;;;;;;;70.30;28.92;;;;;;;;;;6067098;23;20018;-85
2023/01/31 01:19:12;;;;;;;65.50;29.80;;;;;;;;;;6067397;23;20022;-83
2023/01/31 01:21:57;;;;;;;69.68;30.10;;;;;;;;;;6090148;23;20019;-83
2023/01/31 01:24:43;;;;;;;69.07;28.83;;;;;;;;;;6107764;23;20352;-83
2023/01/31 01:27:29;;;;;;;68.80;29.85;;;;;;;;;;6108106;23;20022;-82
2023/01/31 01:30:14;;;;;;;55.15;23.10;;;;;;;;;;6107377;23;20026;-82
2023/01/31 01:33:00;;;;;;;30.48;12.27;;;;;;;;;;6087097;23;20018;-82
2023/01/31 01:35:45;;;;;;;44.50;18.67;;;;;;;;;;6106813;23;20022;-82
2023/01/31 01:38:32;;;;;;;31.25;13.68;;;;;;;;;;6107562;23;20022;-83
2023/01/31 01:41:18;;;;;;;29.48;13.43;;;;;;;;;;6086870;23;20026;-82
2023/01/31 01:44:41;;;;;;;23.50;11.35;;;;;;;;;;6107208;23;20014;-83
2023/01/31 01:47:45;;;;;;;33.47;15.43;;;;;;;;;;6107681;23;20018;-82
2023/01/31 01:50:40;;;;;;;60.42;26.75;;;;;;;;;;6106697;23;20026;-83
2023/01/31 01:53:28;;;;;;;67.13;28.67;;;;;;;;;;6107605;23;20022;-81
2023/01/31 01:56:18;;;;;;;63.58;27.52;;;;;;;;;;6086461;23;20023;-85
2023/01/31 01:59:28;;;;;;;78.97;33.35;;;;;;;;;;6087107;23;20024;-83
2023/01/31 02:02:15;;;;;;;78.88;33.78;;;;;;;;;;6106745;23;20023;-83
2023/01/31 02:05:01;;;;;;;84.50;34.08;;;;;;;;;;6086626;23;20022;-83
2023/01/31 02:07:46;;;;;;;91.20;35.75;;;;;;;;;;6087102;23;20019;-85
2023/01/31 02:11:14;;;;;;;92.32;39.20;;;;;;;;;;6106596;23;20460;-83
2023/01/31 02:14:09;;;;;;;88.28;34.85;;;;;;;;;;6087030;23;20022;-83
2023/01/31 02:16:55;;;;;;;95.60;37.13;;;;;;;;;;6106739;23;20018;-84
2023/01/31 02:20:18;;;;;;;105.97;41.90;;;;;;;;;;6086469;23;20018;-83
2023/01/31 02:23:15;;;;;;;98.30;38.95;;;;;;;;;;6086429;23;20026;-83
2023/01/31 02:26:21;;;;;;;98.07;37.53;;;;;;;;;;6086439;23;20022;-84
2023/01/31 02:29:31;;;;;;;102.47;38.10;;;;;;;;;;6107155;23;20022;-84
2023/01/31 02:32:45;;;;;;;90.10;35.08;;;;;;;;;;6085981;23;20018;-83
2023/01/31 02:35:40;;;;;;;71.30;31.33;;;;;;;;;;6106813;23;20014;-84
2023/01/31 02:38:48;;;;;;;71.53;31.95;;;;;;;;;;6106210;23;20023;-84
2023/01/31 02:41:42;;;;;;;59.75;29.40;;;;;;;;;;6106560;23;20444;-84
2023/01/31 02:47:48;;;;;;;41.60;18.27;;;;;;;;;;6106470;23;20022;-82
2023/01/31 02:50:45;;;;;;;38.90;18.98;;;;;;;;;;6086389;23;20022;-83
2023/01/31 02:53:41;;;;;;;57.50;24.50;;;;;;;;;;6086348;23;20022;-83
2023/01/31 02:56:33;;;;;;;53.25;26.63;;;;;;;;;;6086605;23;20015;-83
2023/01/31 02:59:25;;;;;;;46.10;19.05;;;;;;;;;;6106313;23;20019;-81
2023/01/31 03:02:12;;;;;;;87.85;44.97;;;;;;;;;;6085787;23;20344;-83
2023/01/31 03:04:57;;;;;;;13.77;8.43;;;;;;;;;;6085098;23;20022;-82
2023/01/31 03:07:48;;;;;;;10.77;6.82;;;;;;;;;;6105577;23;20026;-82
2023/01/31 03:10:41;;;;;;;7.50;4.70;;;;;;;;;;6085949;23;20436;-84
2023/01/31 03:14:05;;;;;;;7.80;4.03;;;;;;;;;;6106133;23;20014;-82
2023/01/31 03:17:34;;;;;;;5.32;3.28;;;;;;;;;;6086666;23;20022;-82
2023/01/31 03:20:35;;;;;;;43.65;19.55;;;;;;;;;;5979295;23;20028;-83
2023/01/31 03:23:23;;;;;;;151.18;64.85;;;;;;;;;;5978539;23;20019;-84
2023/01/31 03:26:09;;;;;;;20.05;11.57;;;;;;;;;;6085599;23;20014;-84
2023/01/31 03:28:57;;;;;;;27.27;14.32;;;;;;;;;;6085223;23;20022;-83
2023/01/31 03:31:51;;;;;;;14.68;8.65;;;;;;;;;;6103921;23;20363;-84
2023/01/31 03:34:37;;;;;;;10.15;6.10;;;;;;;;;;6084564;23;20428;-83
2023/01/31 03:37:38;;;;;;;8.65;4.10;;;;;;;;;;6105455;23;20045;-85
2023/01/31 03:40:33;;;;;;;5.63;2.90;;;;;;;;;;6085044;23;20426;-83
2023/01/31 03:43:36;;;;;;;4.65;2.95;;;;;;;;;;6084352;23;20023;-83
2023/01/31 03:46:40;;;;;;;6.47;2.80;;;;;;;;;;6106103;23;20444;-83
2023/01/31 03:49:27;;;;;;;7.03;3.03;;;;;;;;;;6085781;23;20026;-84
2023/01/31 03:52:18;;;;;;;7.20;3.13;;;;;;;;;;6106141;23;20018;-81
2023/01/31 03:55:17;;;;;;;4.60;2.28;;;;;;;;;;6085584;23;20022;-83
2023/01/31 03:58:07;;;;;;;7.97;3.55;;;;;;;;;;6106003;23;20022;-82
2023/01/31 04:00:58;;;;;;;4.45;2.97;;;;;;;;;;6086245;23;20026;-83
2023/01/31 04:04:07;;;;;;;2.28;1.90;;;;;;;;;;6086651;23;20019;-83
2023/01/31 04:06:52;;;;;;;8.20;3.85;;;;;;;;;;6085749;23;20014;-84
2023/01/31 04:09:39;;;;;;;2.85;2.03;;;;;;;;;;6105758;23;20026;-85
2023/01/31 04:12:24;;;;;;;4.07;2.42;;;;;;;;;;6105746;23;20018;-83
2023/01/31 04:15:11;;;;;;;10.27;5.22;;;;;;;;;;6085448;23;20022;-83
2023/01/31 04:17:56;;;;;;;10.40;3.65;;;;;;;;;;6085794;23;20026;-83
2023/01/31 04:20:41;;;;;;;12.80;5.05;;;;;;;;;;6105587;23;20015;-83
2023/01/31 04:23:26;;;;;;;3.42;1.92;;;;;;;;;;6065013;23;20018;-83
2023/01/31 04:26:11;;;;;;;8.65;4.25;;;;;;;;;;6085515;23;20436;-85
2023/01/31 04:28:56;;;;;;;31.90;15.10;;;;;;;;;;6064986;23;20026;-82
2023/01/31 04:31:42;;;;;;;37.10;15.75;;;;;;;;;;6107135;23;20018;-81
2023/01/31 04:34:27;;;;;;;41.15;17.80;;;;;;;;;;6065145;23;20026;-82
2023/01/31 04:37:12;;;;;;;44.17;19.17;;;;;;;;;;6085121;23;20360;-85
2023/01/31 04:39:57;;;;;;;38.55;18.50;;;;;;;;;;6085084;23;20023;-84
2023/01/31 04:42:42;;;;;;;36.80;17.83;;;;;;;;;;6085870;23;20348;-82
2023/01/31 04:45:27;;;;;;;35.88;16.73;;;;;;;;;;6085591;23;20018;-81
2023/01/31 04:48:13;;;;;;;36.75;15.85;;;;;;;;;;6065203;23;20026;-84
2023/01/31 04:50:58;;;;;;;23.95;12.82;;;;;;;;;;6085418;23;20022;-82
2023/01/31 04:53:44;;;;;;;33.97;15.65;;;;;;;;;;6065741;23;20432;-81
2023/01/31 04:56:31;;;;;;;33.70;13.73;;;;;;;;;;6085674;23;20045;-82
2023/01/31 04:59:15;;;;;;;23.02;11.70;;;;;;;;;;6064713;23;20022;-83
2023/01/31 05:02:01;;;;;;;27.27;12.43;;;;;;;;;;6065414;23;20022;-81
2023/01/31 05:04:47;;;;;;;15.20;8.43;;;;;;;;;;6085127;23;20022;-82
2023/01/31 05:07:34;;;;;;;10.85;6.60;;;;;;;;;;6065644;23;20022;-84
2023/01/31 05:10:20;;;;;;;7.00;5.60;;;;;;;;;;6065345;23;20026;-81
2023/01/31 05:13:06;;;;;;;23.58;11.98;;;;;;;;;;6064668;23;20432;-82
2023/01/31 05:15:51;;;;;;;14.10;7.28;;;;;;;;;;6065072;23;20014;-81
2023/01/31 05:18:37;;;;;;;20.88;11.98;;;;;;;;;;6065523;23;20022;-82
2023/01/31 05:21:22;;;;;;;24.52;12.07;;;;;;;;;;6067800;23;20414;-82
2023/01/31 05:24:08;;;;;;;7.45;4.82;;;;;;;;;;6084957;23;20018;-82
2023/01/31 05:27:02;;;;;;;12.73;6.07;;;;;;;;;;6088945;23;20018;-83
2023/01/31 05:29:57;;;;;;;8.70;4.82;;;;;;;;;;6096327;23;20022;-82
2023/01/31 05:32:48;;;;;;;20.17;9.50;;;;;;;;;;6113804;23;20022;-82
2023/01/31 05:35:34;;;;;;;21.52;10.77;;;;;;;;;;6114540;23;20380;-81
2023/01/31 05:38:20;;;;;;;10.52;6.43;;;;;;;;;;6114283;23;20018;-82
2023/01/31 05:41:05;;;;;;;7.95;4.20;;;;;;;;;;6115779;23;20023;-84
2023/01/31 05:43:51;;;;;;;14.90;6.40;;;;;;;;;;6093460;23;20452;-83
2023/01/31 05:46:37;;;;;;;10.90;6.18;;;;;;;;;;6087526;23;20019;-83
2023/01/31 05:49:22;;;;;;;6.88;4.70;;;;;;;;;;6107865;23;20026;-83
2023/01/31 05:52:07;;;;;;;28.25;10.88;;;;;;;;;;6107143;23;20019;-84
2023/01/31 05:54:52;;;;;;;8.45;4.63;;;;;;;;;;6086052;23;20344;-82
2023/01/31 05:57:37;;;;;;;18.73;9.23;;;;;;;;;;6106743;23;20018;-81
2023/01/31 06:00:23;;;;;;;7.25;4.13;;;;;;;;;;6086163;23;20022;-82
2023/01/31 06:03:09;;;;;;;17.33;7.65;;;;;;;;;;6108599;23;20022;-83
2023/01/31 06:05:54;;;;;;;19.30;8.48;;;;;;;;;;6106610;23;20026;-83
2023/01/31 06:08:40;;;;;;;20.40;10.57;;;;;;;;;;6106559;23;20026;-81
2023/01/31 06:11:26;;;;;;;25.02;13.25;;;;;;;;;;6108084;23;20022;-82
2023/01/31 06:14:11;;;;;;;15.98;8.23;;;;;;;;;;6107700;23;20348;-82
2023/01/31 06:16:57;;;;;;;8.50;5.38;;;;;;;;;;6108155;23;20022;-82
2023/01/31 06:19:42;;;;;;;10.60;5.45;;;;;;;;;;6086579;23;20022;-82
2023/01/31 06:22:27;;;;;;;10.30;5.78;;;;;;;;;;6105652;23;20336;-82
2023/01/31 06:25:12;;;;;;;12.43;7.00;;;;;;;;;;6107555;23;20015;-82
2023/01/31 06:27:58;;;;;;;17.83;9.85;;;;;;;;;;6104380;23;20018;-82
2023/01/31 06:30:43;;;;;;;20.63;10.75;;;;;;;;;;6107646;23;20027;-82
2023/01/31 06:33:28;;;;;;;33.58;15.50;;;;;;;;;;6107574;23;20023;-81
2023/01/31 06:36:17;;;;;;;36.53;16.95;;;;;;;;;;6084596;23;20023;-82
2023/01/31 06:39:03;;;;;;;36.70;18.38;;;;;;;;;;6106978;23;20023;-81
2023/01/31 06:41:48;;;;;;;23.88;11.85;;;;;;;;;;6106610;23;20022;-81
2023/01/31 06:44:33;;;;;;;16.40;9.32;;;;;;;;;;6107139;23;20352;-82
2023/01/31 06:47:18;;;;;;;14.63;8.63;;;;;;;;;;6108069;23;20018;-82
2023/01/31 06:50:04;;;;;;;16.95;9.30;;;;;;;;;;6107349;23;20030;-82
2023/01/31 06:52:49;;;;;;;17.88;9.40;;;;;;;;;;6086314;23;20018;-83
2023/01/31 06:55:34;;;;;;;22.17;10.63;;;;;;;;;;6106385;23;20030;-82
2023/01/31 06:58:19;;;;;;;22.52;12.70;;;;;;;;;;6106071;23;20026;-82
2023/01/31 07:01:06;;;;;;;21.73;10.40;;;;;;;;;;6106982;23;20023;-81
2023/01/31 07:03:51;;;;;;;23.85;12.48;;;;;;;;;;6105038;23;20356;-82
2023/01/31 07:06:36;;;;;;;31.67;12.77;;;;;;;;;;6106332;23;20344;-82
2023/01/31 07:09:22;;;;;;;26.23;11.65;;;;;;;;;;6106528;23;20026;-82
2023/01/31 07:12:07;;;;;;;21.88;11.32;;;;;;;;;;6085782;23;20023;-82
2023/01/31 07:14:52;;;;;;;22.15;10.65;;;;;;;;;;6106491;23;20018;-82
2023/01/31 07:17:38;;;;;;;20.38;11.18;;;;;;;;;;6085558;23;20019;-82
2023/01/31 07:20:23;;;;;;;25.65;14.70;;;;;;;;;;6107803;23;20018;-83
2023/01/31 07:23:09;;;;;;;34.15;16.10;;;;;;;;;;6057331;23;20023;-82
2023/01/31 07:25:53;;;;;;;24.20;12.95;;;;;;;;;;6036724;23;20022;-83
2023/01/31 07:28:39;;;;;;;21.05;12.40;;;;;;;;;;6057563;23;20019;-82
2023/01/31 07:31:23;;;;;;;23.45;13.98;;;;;;;;;;6077959;23;20027;-82
2023/01/31 07:34:08;;;;;;;22.98;13.38;;;;;;;;;;6078613;23;20026;-82
2023/01/31 07:36:54;;;;;;;25.63;12.93;;;;;;;;;;6037665;23;20027;-82
2023/01/31 07:39:39;;;;;;;50.03;20.40;;;;;;;;;;6036552;23;20345;-82
2023/01/31 07:42:24;;;;;;;35.67;18.45;;;;;;;;;;6078527;23;20026;-82
2023/01/31 07:45:12;;;;;;;38.67;20.50;;;;;;;;;;6078068;23;20023;-82
2023/01/31 07:47:58;;;;;;;45.78;24.85;;;;;;;;;;6078156;23;20026;-82
2023/01/31 07:50:43;;;;;;;32.88;20.25;;;;;;;;;;6057011;23;20352;-81
2023/01/31 07:53:31;;;;;;;132.25;48.20;;;;;;;;;;6077730;23;20023;-81
2023/01/31 07:56:19;;;;;;;62.75;30.92;;;;;;;;;;6057064;23;20023;-81
2023/01/31 07:59:04;;;;;;;80.25;43.22;;;;;;;;;;6056312;23;20019;-80
2023/01/31 08:04:53;;;;;;;78.90;39.25;;;;;;;;;;6078661;23;20348;-81
2023/01/31 08:07:38;;;;;;;65.70;33.60;;;;;;;;;;6077691;23;20026;-81
2023/01/31 08:10:24;;;;;;;139.65;61.35;;;;;;;;;;6056997;23;20048;-82
2023/01/31 08:13:10;;;;;;;163.80;72.53;;;;;;;;;;6077853;23;20023;-82
2023/01/31 08:15:55;;;;;;;102.25;47.08;;;;;;;;;;6056775;23;20031;-82
2023/01/31 08:18:40;;;;;;;61.97;32.10;;;;;;;;;;6056845;23;20023;-81
2023/01/31 08:21:26;;;;;;;50.22;28.48;;;;;;;;;;6068062;23;20026;-81
2023/01/31 08:24:11;;;;;;;30.83;16.27;;;;;;;;;;6106130;23;20026;-80
2023/01/31 08:26:57;;;;;;;34.72;18.48;;;;;;;;;;6106471;23;20018;-81
2023/01/31 08:29:42;;;;;;;20.17;11.52;;;;;;;;;;6105687;23;20471;-80
2023/01/31 08:32:28;;;;;;;25.70;13.77;;;;;;;;;;6105841;23;20026;-80
2023/01/31 08:35:13;;;;;;;31.33;16.08;;;;;;;;;;6106548;23;20023;-80
2023/01/31 08:37:59;;;;;;;29.92;17.25;;;;;;;;;;6106045;23;20022;-81
2023/01/31 08:40:44;;;;;;;37.78;19.20;;;;;;;;;;6105985;23;20176;-81
2023/01/31 08:43:31;;;;;;;38.63;22.70;;;;;;;;;;6105536;23;20022;-81
2023/01/31 08:46:17;;;;;;;89.47;42.58;;;;;;;;;;6107086;23;20015;-81
2023/01/31 08:49:04;;;;;;;104.03;48.22;;;;;;;;;;6105552;23;20022;-81
2023/01/31 08:51:49;;;;;;;103.43;48.80;;;;;;;;;;6106412;23;20440;-81
2023/01/31 08:54:35;;;;;;;91.18;43.25;;;;;;;;;;6105791;23;20026;-81
2023/01/31 08:57:21;;;;;;;89.18;42.88;;;;;;;;;;6106686;23;20026;-81
2023/01/31 09:00:07;;;;;;;83.05;41.38;;;;;;;;;;6105937;23;20018;-81
2023/01/31 09:02:57;;;;;;;27.60;14.93;;;;;;;;;;6108482;23;20352;-83
2023/01/31 09:05:43;;;;;;;13.80;8.32;;;;;;;;;;6087139;23;20022;-82
2023/01/31 09:08:29;;;;;;;13.23;7.80;;;;;;;;;;6107854;23;20340;-83
2023/01/31 09:11:17;;;;;;;22.17;11.50;;;;;;;;;;6086559;23;20030;-84
2023/01/31 09:14:02;;;;;;;13.27;7.35;;;;;;;;;;6087683;23;20018;-83
2023/01/31 09:16:48;;;;;;;18.25;9.13;;;;;;;;;;6107243;23;20018;-82
2023/01/31 09:19:33;;;;;;;8.57;4.55;;;;;;;;;;6107377;23;20018;-82
2023/01/31 09:22:19;;;;;;;14.55;7.00;;;;;;;;;;6099639;23;20027;-83
2023/01/31 09:25:06;;;;;;;4.82;2.72;;;;;;;;;;6086432;23;20022;-81
2023/01/31 09:27:52;;;;;;;9.57;4.53;;;;;;;;;;6107411;23;20022;-82
2023/01/31 09:30:38;;;;;;;12.98;6.13;;;;;;;;;;6107253;23;20344;-83
2023/01/31 09:33:23;;;;;;;10.70;5.85;;;;;;;;;;6107049;23;20019;-81
2023/01/31 09:36:11;;;;;;;7.18;3.63;;;;;;;;;;6107252;23;20018;-82
2023/01/31 09:38:56;;;;;;;5.70;3.00;;;;;;;;;;6086370;23;20348;-81
2023/01/31 09:41:47;;;;;;;5.60;3.40;;;;;;;;;;6107136;23;20432;-82
2023/01/31 09:44:44;;;;;;;5.57;3.22;;;;;;;;;;6106510;23;20027;-84
2023/01/31 09:47:35;;;;;;;13.77;4.45;;;;;;;;;;6086571;23;20022;-83
2023/01/31 09:50:39;;;;;;;9.48;5.40;;;;;;;;;;6087130;23;20022;-83
2023/01/31 09:53:50;;;;;;;13.18;4.88;;;;;;;;;;6086469;23;20018;-83
2023/01/31 09:56:44;;;;;;;14.10;5.93;;;;;;;;;;6106880;23;20019;-84
2023/01/31 09:59:51;;;;;;;7.75;4.88;;;;;;;;;;6085927;23;20022;-84
2023/01/31 10:03:09;;;;;;;12.85;6.22;;;;;;;;;;6106940;23;20018;-83
2023/01/31 10:06:31;;;;;;;14.23;4.97;;;;;;;;;;6086150;23;20018;-82
2023/01/31 10:09:26;;;;;;;14.13;7.20;;;;;;;;;;6033075;23;20022;-82
2023/01/31 10:12:32;;;;;;;5.72;3.45;;;;;;;;;;6106438;23;20162;-83
2023/01/31 10:15:42;;;;;;;5.93;3.80;;;;;;;;;;6108023;23;20022;-83
2023/01/31 10:18:31;;;;;;;4.97;3.15;;;;;;;;;;6107083;23;20018;-81
2023/01/31 10:21:20;;;;;;;8.30;4.85;;;;;;;;;;6102822;23;20231;-84
2023/01/31 10:24:32;;;;;;;7.68;2.58;;;;;;;;;;6086552;23;20444;-84
2023/01/31 10:27:39;;;;;;;7.32;3.35;;;;;;;;;;6106761;23;20022;-83
2023/01/31 10:30:41;;;;;;;9.57;5.07;;;;;;;;;;6087004;23;20360;-84
2023/01/31 10:33:55;;;;;;;9.88;5.53;;;;;;;;;;6106875;23;20019;-83
2023/01/31 10:37:19;;;;;;;6.47;3.67;;;;;;;;;;6106076;23;20018;-83
2023/01/31 10:40:25;;;;;;;8.73;4.88;;;;;;;;;;6106571;23;20022;-83
2023/01/31 10:43:36;;;;;;;5.47;3.00;;;;;;;;;;6086785;23;20019;-86
2023/01/31 10:46:22;;;;;;;5.63;3.75;;;;;;;;;;6086743;23;20018;-83
2023/01/31 10:49:09;;;;;;;15.32;6.93;;;;;;;;;;6106643;23;20344;-82
2023/01/31 10:52:15;;;;;;;20.40;7.13;;;;;;;;;;6107343;23;20026;-85
2023/01/31 10:55:06;;;;;;;9.13;4.30;;;;;;;;;;6106945;23;20022;-83
2023/01/31 10:57:53;;;;;;;12.85;6.38;;;;;;;;;;6106135;23;20014;-81
2023/01/31 11:00:38;;;;;;;6.93;4.68;;;;;;;;;;6107198;23;20023;-82
2023/01/31 11:03:23;;;;;;;15.73;6.40;;;;;;;;;;6086518;23;20022;-82
2023/01/31 11:06:11;;;;;;;5.18;3.58;;;;;;;;;;6106022;23;20444;-81
2023/01/31 11:08:59;;;;;;;3.85;2.80;;;;;;;;;;6106642;23;20030;-81
2023/01/31 11:11:59;;;;;;;10.73;3.55;;;;;;;;;;6107053;23;20026;-82
2023/01/31 11:14:44;;;;;;;6.90;2.83;;;;;;;;;;6086119;23;20018;-82
2023/01/31 11:17:30;;;;;;;;;;;;;;;;;;6106885;23;20019;-82
2023/01/31 11:20:29;;;;;;;9.55;3.15;;;;;;;;;;6103243;23;20319;-80
2023/01/31 11:23:20;;;;;;;10.23;4.57;;;;;;;;;;6107374;23;20022;-82
2023/01/31 11:26:06;;;;;;;7.53;4.78;;;;;;;;;;6106799;23;20030;-83
2023/01/31 11:28:54;;;;;;;13.10;5.90;;;;;;;;;;6086519;23;20019;-83
2023/01/31 11:31:44;;;;;;;7.38;4.55;;;;;;;;;;6097030;23;20022;-83
2023/01/31 11:34:29;;;;;;;8.45;4.18;;;;;;;;;;6106770;23;20023;-80
2023/01/31 11:37:17;;;;;;;14.95;6.22;;;;;;;;;;6107789;23;20022;-82
2023/01/31 11:40:14;;;;;;;12.98;5.22;;;;;;;;;;6085493;23;20014;-83
2023/01/31 11:43:01;;;;;;;7.15;3.30;;;;;;;;;;6106051;23;20098;-82
2023/01/31 11:45:58;;;;;;;10.52;4.25;;;;;;;;;;6106358;23;20337;-83
2023/01/31 11:48:43;;;;;;;5.35;2.92;;;;;;;;;;6105568;23;20369;-82
2023/01/31 11:51:30;;;;;;;7.32;3.78;;;;;;;;;;6086218;23;20022;-82
2023/01/31 11:54:23;;;;;;;9.20;5.10;;;;;;;;;;6085402;23;20026;-83
2023/01/31 11:57:20;;;;;;;5.22;3.33;;;;;;;;;;6106089;23;20022;-82
2023/01/31 12:00:20;;;;;;;3.58;2.95;;;;;;;;;;6106697;23;20022;-81
2023/01/31 12:03:12;;;;;;;12.88;7.40;;;;;;;;;;6105947;23;20035;-82
2023/01/31 12:06:05;;;;;;;12.27;5.57;;;;;;;;;;6085624;23;20355;-81
2023/01/31 12:09:23;;;;;;;13.63;6.75;;;;;;;;;;6106682;23;20022;-82
2023/01/31 12:12:30;;;;;;;10.48;4.53;;;;;;;;;;6085694;23;20022;-82
2023/01/31 12:15:16;;;;;;;3.80;1.90;;;;;;;;;;6105589;23;20355;-82
2023/01/31 12:18:00;;;;;;;5.28;3.25;;;;;;;;;;6107107;23;20027;-81
2023/01/31 12:20:58;;;;;;;8.80;3.95;;;;;;;;;;6104703;23;20030;-83
2023/01/31 12:24:00;;;;;;;7.72;4.75;;;;;;;;;;6106348;23;20018;-84
2023/01/31 12:26:55;;;;;;;11.05;5.47;;;;;;;;;;6107295;23;20019;-82
2023/01/31 12:30:24;;;;;;;4.93;2.92;;;;;;;;;;6106375;23;20022;-83
2023/01/31 12:33:51;;;;;;;9.27;3.92;;;;;;;;;;6085558;23;20014;-80
2023/01/31 12:36:42;;;;;;;9.30;4.40;;;;;;;;;;6087037;23;20030;-82
2023/01/31 12:39:46;;;;;;;8.32;3.08;;;;;;;;;;6087582;23;20441;-81
2023/01/31 12:42:52;;;;;;;4.13;2.58;;;;;;;;;;6067132;23;20022;-82
2023/01/31 12:45:56;;;;;;;12.52;5.95;;;;;;;;;;6108570;23;20018;-81
2023/01/31 12:48:54;;;;;;;4.22;2.47;;;;;;;;;;6087342;23;20022;-82
2023/01/31 12:51:59;;;;;;;3.42;2.60;;;;;;;;;;6066653;23;20340;-82
2023/01/31 12:54:59;;;;;;;8.82;4.20;;;;;;;;;;6087786;23;20022;-82
2023/01/31 12:58:13;;;;;;;7.00;3.08;;;;;;;;;;6066734;23;20019;-82
2023/01/31 13:01:02;;;;;;;9.77;4.82;;;;;;;;;;6087255;23;20352;-84
2023/01/31 13:04:12;;;;;;;5.38;3.53;;;;;;;;;;6087292;23;20026;-81
2023/01/31 13:07:01;;;;;;;3.50;2.55;;;;;;;;;;6086951;23;20015;-82
2023/01/31 13:09:50;;;;;;;7.05;4.60;;;;;;;;;;6067641;23;20030;-81
2023/01/31 13:12:36;;;;;;;12.00;4.55;;;;;;;;;;6086618;23;20018;-82
2023/01/31 13:15:48;;;;;;;5.55;3.47;;;;;;;;;;6067172;23;20019;-81
2023/01/31 13:18:35;;;;;;;12.07;6.20;;;;;;;;;;6087133;23;20019;-85
2023/01/31 13:21:28;;;;;;;19.90;7.65;;;;;;;;;;6066664;23;20026;-84
2023/01/31 13:24:26;;;;;;;6.03;2.90;;;;;;;;;;6088472;23;20018;-82
2023/01/31 13:27:32;;;;;;;7.75;3.78;;;;;;;;;;6087096;23;20019;-82
2023/01/31 13:30:23;;;;;;;9.30;4.63;;;;;;;;;;6108840;23;20026;-83
2023/01/31 13:33:26;;;;;;;9.88;5.45;;;;;;;;;;6108003;23;20335;-83
2023/01/31 13:36:31;;;;;;;17.20;7.68;;;;;;;;;;6108554;23;20019;-83
2023/01/31 13:39:34;;;;;;;16.67;7.20;;;;;;;;;;6066783;23;20026;-83
2023/01/31 13:42:20;;;;;;;6.05;3.72;;;;;;;;;;6086674;23;20018;-84
2023/01/31 13:45:09;;;;;;;13.02;5.78;;;;;;;;;;6086746;23;20026;-82
2023/01/31 13:48:04;;;;;;;5.88;3.70;;;;;;;;;;6087471;23;20466;-82
2023/01/31 13:50:56;;;;;;;9.68;3.95;;;;;;;;;;6109110;23;20018;-83
2023/01/31 13:53:47;;;;;;;7.72;3.72;;;;;;;;;;6087211;23;20022;-82
2023/01/31 13:56:34;;;;;;;10.85;4.00;;;;;;;;;;6108128;23;20440;-84
2023/01/31 13:59:24;;;;;;;16.23;4.57;;;;;;;;;;6086835;23;20018;-83
2023/01/31 14:02:18;;;;;;;13.32;6.13;;;;;;;;;;6086428;23;20022;-82
2023/01/31 14:05:24;;;;;;;6.75;3.30;;;;;;;;;;6066738;23;20018;-81
2023/01/31 14:08:31;;;;;;;10.93;5.47;;;;;;;;;;6107662;23;20022;-81
2023/01/31 14:11:15;;;;;;;20.95;8.05;;;;;;;;;;6107979;23;20018;-81
2023/01/31 14:14:40;;;;;;;37.38;10.95;;;;;;;;;;6066194;23;20026;-82
2023/01/31 14:17:25;;;;;;;21.48;9.43;;;;;;;;;;6066194;23;20360;-85
2023/01/31 14:20:28;;;;;;;29.83;11.10;;;;;;;;;;6087051;23;20022;-81
2023/01/31 14:23:29;;;;;;;43.95;13.65;;;;;;;;;;6107747;23;20022;-81
2023/01/31 14:26:53;;;;;;;4.68;2.78;;;;;;;;;;6086418;23;20026;-81
2023/01/31 14:29:41;;;;;;;6.10;3.72;;;;;;;;;;5943371;24;20024;-82
2023/01/31 14:32:33;;;;;;;11.35;2.97;;;;;;;;;;6107758;23;20014;-83
2023/01/31 14:35:39;;;;;;;3.60;2.40;;;;;;;;;;6086070;23;20022;-81
2023/01/31 14:38:44;;;;;;;7.68;3.22;;;;;;;;;;6107650;23;20348;-82
2023/01/31 14:41:32;;;;;;;4.85;3.78;;;;;;;;;;6107347;23;20022;-83
2023/01/31 14:44:31;;;;;;;4.68;3.80;;;;;;;;;;6107995;23;20018;-83
2023/01/31 14:47:42;;;;;;;7.68;4.32;;;;;;;;;;6066127;23;20022;-83
2023/01/31 14:50:57;;;;;;;12.35;4.78;;;;;;;;;;6085925;23;20372;-82
2023/01/31 14:53:54;;;;;;;;;;;;;;;;;;6086614;23;20336;-82
2023/01/31 14:57:05;;;;;;;6.97;4.30;;;;;;;;;;6085636;23;19913;-82
2023/01/31 15:00:15;;;;;;;7.43;2.97;;;;;;;;;;6085864;23;20014;-83
2023/01/31 15:03:18;;;;;;;7.22;4.10;;;;;;;;;;6065644;23;20018;-81
2023/01/31 15:06:26;;;;;;;3.30;2.47;;;;;;;;;;6107739;23;20022;-80
2023/01/31 15:09:20;;;;;;;10.55;4.78;;;;;;;;;;6107553;23;20023;-82
2023/01/31 15:12:44;;;;;;;5.53;3.72;;;;;;;;;;6086196;23;20027;-82
2023/01/31 15:15:39;;;;;;;15.25;7.80;;;;;;;;;;6107437;23;20022;-81
2023/01/31 15:18:25;;;;;;;237.88;44.67;;;;;;;;;;6085292;23;20022;-85
2023/01/31 15:21:10;;;;;;;32.33;13.95;;;;;;;;;;6085993;23;20022;-81
2023/01/31 15:23:58;;;;;;;21.13;10.48;;;;;;;;;;6107229;23;20027;-82
2023/01/31 15:26:45;;;;;;;39.95;14.45;;;;;;;;;;6107719;23;20018;-80
2023/01/31 15:29:52;;;;;;;13.38;7.00;;;;;;;;;;6105997;23;20348;-81
2023/01/31 15:32:56;;;;;;;6.40;4.10;;;;;;;;;;6105817;23;20348;-82
2023/01/31 15:35:48;;;;;;;5.93;2.95;;;;;;;;;;6107154;23;20026;-80
2023/01/31 15:38:40;;;;;;;5.95;2.92;;;;;;;;;;6106954;23;20022;-80
2023/01/31 15:41:36;;;;;;;8.27;4.13;;;;;;;;;;6107065;23;20026;-81
2023/01/31 15:44:23;;;;;;;12.50;5.88;;;;;;;;;;6107286;23;20027;-81
2023/01/31 15:47:19;;;;;;;4.85;3.47;;;;;;;;;;6107306;23;20022;-82
2023/01/31 15:50:18;;;;;;;8.52;3.15;;;;;;;;;;6085161;23;20344;-80
2023/01/31 15:53:05;;;;;;;4.47;3.70;;;;;;;;;;6085013;23;20014;-81
2023/01/31 15:55:52;;;;;;;10.02;4.38;;;;;;;;;;6084845;23;20018;-81
2023/01/31 15:58:37;;;;;;;7.55;2.97;;;;;;;;;;6105422;23;20022;-80
2023/01/31 16:01:29;;;;;;;12.63;7.55;;;;;;;;;;6107367;23;20344;-81
2023/01/31 16:04:14;;;;;;;17.65;10.60;;;;;;;;;;6105742;23;20022;-80
2023/01/31 16:06:59;;;;;;;19.92;10.80;;;;;;;;;;6106925;23;20019;-80
2023/01/31 16:09:46;;;;;;;24.10;12.60;;;;;;;;;;6106789;23;20018;-82
2023/01/31 16:12:34;;;;;;;31.48;18.00;;;;;;;;;;6085305;23;20026;-80
2023/01/31 16:15:24;;;;;;;43.00;22.25;;;;;;;;;;6107099;23;20018;-80
2023/01/31 16:18:11;;;;;;;35.45;16.98;;;;;;;;;;6106871;23;20018;-80
2023/01/31 16:20:56;;;;;;;61.03;26.33;;;;;;;;;;6104424;23;20432;-81
2023/01/31 16:23:42;;;;;;;29.20;14.30;;;;;;;;;;6107377;23;20451;-82
2023/01/31 16:26:35;;;;;;;36.20;18.45;;;;;;;;;;6106532;23;20014;-82
2023/01/31 16:29:22;;;;;;;33.03;17.00;;;;;;;;;;6106994;23;20429;-83
2023/01/31 16:32:16;;;;;;;42.70;21.40;;;;;;;;;;6085486;23;20026;-83
2023/01/31 16:35:17;;;;;;;36.70;18.58;;;;;;;;;;6085198;23;20022;-84
2023/01/31 16:38:06;;;;;;;42.80;19.58;;;;;;;;;;6085856;23;20424;-83
2023/01/31 16:40:54;;;;;;;42.70;18.35;;;;;;;;;;6106453;23;20018;-83
2023/01/31 16:43:41;;;;;;;60.80;22.58;;;;;;;;;;6085390;23;20436;-82
2023/01/31 16:46:43;;;;;;;76.13;25.10;;;;;;;;;;6064828;23;20026;-82
2023/01/31 16:49:32;;;;;;;65.70;25.08;;;;;;;;;;6106610;23;20019;-81
2023/01/31 16:52:27;;;;;;;35.97;19.95;;;;;;;;;;6085207;23;20030;-80
2023/01/31 16:55:13;;;;;;;;;;;;;;;;;;6107115;23;20019;-81
2023/01/31 16:57:59;;;;;;;22.98;12.10;;;;;;;;;;6107157;23;19917;-82
2023/01/31 17:00:44;;;;;;;45.47;14.68;;;;;;;;;;6106590;23;20023;-81